Latest Weather Observations for Coonabarabran Airport

IDN60801

Issued at 4:33 pm EST Tuesday 27 September 2016 (issued every 30 minutes, with the page automatically refreshed every 10 minutes)

About weather observations | Map of weather stations | Latest weather observations for NSW | Other Formats
Station Details ID: 064017 Name: COONABARABRAN AIRPORT AWS Lat: -31.33 Lon: 149.27 Height: 645.0 m
Data from the previous 72 hours. | See also: Recent months at Coonabarabran Airport
Date/Time
EST
Temp
°C
App
Temp
°C
Dew
Point
°C
Rel
Hum
%
Delta-T
°C
Wind Press
QNH
hPa
Press
MSL
hPa
Rain since
9am
mm
Dir  Spd
km/h
Gust
km/h
Spd
kts
Gust
kts
27/04:30pm 15.6 10.2 6.3 54 4.7 WSW 24 37 13 20 1013.1 1011.8 0.0
27/04:02pm 16.1 9.7 5.4 49 5.3 W 28 46 15 25 1012.8 1011.4 0.0
27/04:00pm 16.9 11.8 7.5 54 4.9 W 24 33 13 18 1012.8 1011.4 0.0
27/03:30pm 16.5 11.3 7.4 55 4.7 WSW 24 39 13 21 1012.7 1011.3 0.0
27/03:00pm 16.4 10.8 7.3 55 4.7 WSW 26 35 14 19 1012.8 1011.4 0.0
27/02:30pm 17.5 10.6 7.3 51 5.3 WSW 33 46 18 25 1012.7 1011.3 0.0
27/02:00pm 16.9 11.0 7.5 54 4.9 W 28 41 15 22 1012.9 1011.5 0.0
27/01:52pm 16.7 10.6 6.8 52 5.1 W 28 41 15 22 1012.8 1011.4 0.0
27/01:30pm 18.4 10.9 7.8 50 5.6 W 37 50 20 27 1012.7 1011.3 0.0
27/01:00pm 17.5 8.8 5.8 46 5.9 WNW 41 52 22 28 1013.1 1011.8 0.0
27/12:30pm 17.5 9.4 7.0 50 5.4 WNW 39 59 21 32 1013.1 1011.8 0.0
27/12:21pm 17.5 9.3 6.4 48 5.7 W 39 57 21 31 1013.2 1011.9 0.0
27/12:00pm 16.8 7.9 5.1 46 5.8 WNW 41 56 22 30 1013.4 1012.1 0.0
27/11:30am 17.9 11.1 7.6 51 5.4 WNW 33 48 18 26 1013.9 1012.6 0.0
27/11:00am 17.5 11.2 7.3 51 5.3 WNW 30 41 16 22 1014.0 1012.7 0.0
27/10:30am 16.6 12.0 6.4 51 5.2 NW 20 30 11 16 1014.6 1013.3 0.0
27/10:00am 15.6 10.1 5.8 52 4.9 NW 24 32 13 17 1014.8 1013.5 0.0
27/09:30am 15.2 10.4 5.7 53 4.7 NW 20 28 11 15 1015.0 1013.7 0.0
27/09:00am 14.8 10.2 6.4 57 4.2 NW 20 28 11 15 1015.2 1013.9 0.0
27/08:30am 13.9 9.3 6.7 62 3.6 NW 20 28 11 15 1015.3 1014.0 0.0
27/08:00am 12.2 8.5 6.3 67 2.9 N 15 20 8 11 1015.2 1013.9 0.0
27/07:30am 11.0 7.2 5.7 70 2.5 NNW 15 20 8 11 1015.3 1014.0 0.0
27/07:00am 9.8 5.4 5.0 72 2.2 NNW 17 20 9 11 1015.1 1013.8 0.0
27/06:30am 8.3 4.1 3.9 74 2.0 NNW 15 20 8 11 1015.0 1013.7 0.0
27/06:00am 6.3 2.3 3.1 80 1.4 NNW 13 17 7 9 1014.8 1013.5 0.0
27/05:30am 6.3 1.6 3.1 80 1.4 NNW 17 20 9 11 1014.7 1013.4 0.0
27/05:00am 6.6 2.6 3.0 78 1.6 N 13 17 7 9 1014.7 1013.4 0.0
27/04:30am 7.0 3.0 3.1 76 1.7 N 13 15 7 8 1014.7 1013.4 0.0
27/04:00am 7.2 3.2 3.1 75 1.8 NNW 13 15 7 8 1014.6 1013.3 0.0
27/03:30am 7.2 3.2 2.9 74 1.9 NNW 13 17 7 9 1014.5 1013.2 0.0
27/03:00am 7.4 3.4 3.1 74 1.9 NNW 13 17 7 9 1014.5 1013.2 0.0
27/02:30am 6.8 2.8 2.9 76 1.7 N 13 15 7 8 1014.5 1013.2 0.0
27/02:00am 7.0 3.0 2.7 74 1.9 N 13 17 7 9 1014.6 1013.3 0.0
27/01:30am 8.8 5.5 2.6 65 2.7 NNW 9 17 5 9 1014.9 1013.6 0.0
27/01:00am 9.0 6.1 2.6 64 2.8 WNW 7 17 4 9 1015.4 1014.1 0.0
27/12:30am 9.0 5.9 3.4 68 2.5 W 9 15 5 8 1015.5 1014.2 0.0
27/12:00am 8.9 5.6 2.3 63 2.9 WSW 9 19 5 10 1015.6 1014.3 0.0
 
Date/Time
EST
Temp
°C
App
Temp
°C
Dew
Point
°C
Rel
Hum
%
Delta-T
°C
Wind Press
QNH
hPa
Press
MSL
hPa
Rain since
9am
mm
Dir  Spd
km/h
Gust
km/h
Spd
kts
Gust
kts
26/11:30pm 9.0 5.7 2.6 64 2.8 WSW 9 20 5 11 1015.6 1014.3 0.0
26/11:00pm 8.6 5.3 2.6 66 2.6 W 9 19 5 10 1015.7 1014.5 0.0
26/10:30pm 8.3 5.1 2.8 68 2.4 WSW 9 11 5 6 1015.7 1014.5 0.0
26/10:00pm 8.0 4.8 2.9 70 2.2 W 9 11 5 6 1015.7 1014.5 0.0
26/09:30pm 7.9 4.4 3.6 74 1.9 W 11 11 6 6 1015.6 1014.3 0.0
26/09:00pm 8.4 4.5 3.5 71 2.2 WSW 13 15 7 8 1015.6 1014.3 0.0
26/08:30pm 8.6 4.8 3.8 72 2.2 WSW 13 17 7 9 1015.5 1014.2 0.0
26/08:00pm 8.9 5.2 4.3 73 2.1 WSW 13 17 7 9 1015.5 1014.2 0.0
26/07:30pm 9.5 5.8 4.3 70 2.4 WSW 13 17 7 9 1015.4 1014.1 0.0
26/07:00pm 9.4 5.3 4.4 71 2.3 SW 15 19 8 10 1015.1 1013.8 0.0
26/06:30pm 10.0 5.5 4.4 68 2.6 SW 17 24 9 13 1014.7 1013.4 0.0
26/06:00pm 10.8 6.3 4.3 64 3.0 WSW 17 24 9 13 1014.6 1013.3 0.0
26/05:30pm 11.5 6.7 4.5 62 3.3 SW 19 28 10 15 1014.2 1012.8 0.0
26/05:00pm 11.9 7.1 4.9 62 3.3 SW 19 30 10 16 1013.6 1012.3 0.0
26/04:30pm 12.3 6.7 5.5 63 3.3 SW 24 32 13 17 1013.2 1011.9 0.0
26/04:00pm 14.2 9.3 5.0 54 4.5 SW 20 30 11 16 1012.9 1011.5 0.0
26/03:30pm 14.3 9.1 5.7 56 4.2 SW 22 33 12 18 1012.4 1011.1 0.0
26/03:00pm 14.8 10.0 5.6 54 4.5 SW 20 26 11 14 1012.4 1011.1 0.0
26/02:30pm 14.9 10.5 6.7 58 4.1 SW 19 26 10 14 1012.7 1011.3 0.0
26/02:00pm 14.8 10.1 5.9 55 4.4 SSW 20 28 11 15 1013.0 1011.7 0.0
26/01:30pm 14.7 9.9 5.8 55 4.4 SW 20 30 11 16 1013.5 1012.2 0.0
26/01:00pm 15.4 11.8 8.4 63 3.7 SW 17 24 9 13 1013.5 1012.2 0.0
26/12:30pm 14.7 10.9 7.7 63 3.6 SSW 17 24 9 13 1014.0 1012.7 0.0
26/12:00pm 14.6 11.1 7.4 62 3.7 SSW 15 22 8 12 1014.4 1013.1 0.0
26/11:30am 14.2 10.7 5.6 56 4.2 SSW 13 24 7 13 1014.8 1013.5 0.0
26/11:00am 13.5 11.1 5.4 58 3.9 SW 7 19 4 10 1015.2 1013.9 0.0
26/10:30am 12.7 9.6 5.6 62 3.4 S 11 20 6 11 1015.5 1014.2 0.0
26/10:00am 12.3 8.5 3.8 56 4.0 SW 13 20 7 11 1015.7 1014.5 0.0
26/09:30am 11.8 7.8 4.8 62 3.3 SSW 15 22 8 12 1015.7 1014.5 0.0
26/09:00am 11.3 7.5 5.6 68 2.7 SW 15 22 8 12 1015.6 1014.3 1.0
26/08:30am 10.8 6.7 6.0 72 2.3 SW 17 24 9 13 1015.5 1014.2 1.0
26/08:00am 9.6 6.5 5.4 75 2.0 SSW 11 15 6 8 1015.3 1014.0 1.0
26/07:30am 8.3 5.6 5.4 82 1.4 SSW 9 17 5 9 1015.1 1013.8 1.0
26/07:00am 7.6 5.2 5.1 84 1.2 S 7 17 4 9 1014.9 1013.6 1.0
26/06:30am 6.8 5.6 4.8 87 0.9 CALM 0 0 0 0 1014.8 1013.5 1.0
26/06:00am 5.9 3.3 4.2 89 0.8 SSW 7 20 4 11 1014.9 1013.6 1.0
26/05:30am 6.1 3.2 4.4 89 0.8 SSW 9 17 5 9 1014.5 1013.2 1.0
26/05:00am 6.1 3.5 4.3 88 0.8 SW 7 15 4 8 1014.3 1012.9 1.0
26/04:30am 6.7 4.2 4.5 86 1.0 SW 7 15 4 8 1014.2 1012.8 1.0
26/04:00am 6.9 4.5 4.4 84 1.1 SSW 6 15 3 8 1013.9 1012.6 1.0
26/03:30am 7.4 4.5 4.4 81 1.4 SW 9 30 5 16 1014.0 1012.7 1.0
26/03:00am 8.3 4.7 4.9 79 1.6 SW 13 24 7 13 1014.3 1012.9 1.0
26/02:30am 8.5 5.4 5.4 81 1.4 SW 11 17 6 9 1014.4 1013.1 1.0
26/02:00am 9.2 5.8 5.9 80 1.6 WSW 13 19 7 10 1014.7 1013.4 1.0
26/01:30am 9.1 5.3 6.0 81 1.5 WSW 15 22 8 12 1014.9 1013.6 1.0
26/01:00am 9.1 5.4 6.2 82 1.4 WSW 15 20 8 11 1015.0 1013.7 1.0
26/12:30am 9.0 5.7 6.4 84 1.2 SW 13 19 7 10 1014.7 1013.4 1.0
26/12:00am 8.7 5.4 6.5 86 1.1 SSW 13 19 7 10 1014.4 1013.1 1.0
 
Date/Time
EST
Temp
°C
App
Temp
°C
Dew
Point
°C
Rel
Hum
%
Delta-T
°C
Wind Press
QNH
hPa
Press
MSL
hPa
Rain since
9am
mm
Dir  Spd
km/h
Gust
km/h
Spd
kts
Gust
kts
25/11:30pm 9.4 5.1 7.0 85 1.2 SSW 19 24 10 13 1014.3 1012.9 1.0
25/11:00pm 9.6 5.4 7.5 87 1.0 SW 19 24 10 13 1014.4 1013.1 1.0
25/10:30pm 9.5 6.1 7.8 89 0.8 SW 15 20 8 11 1014.5 1013.2 1.0
25/10:00pm 9.6 6.3 7.9 89 0.8 SW 15 19 8 10 1014.3 1012.9 1.0
25/09:30pm 10.2 6.5 8.1 87 1.1 SW 17 22 9 12 1014.2 1012.8 1.0
25/09:00pm 10.6 7.4 8.4 86 1.1 SW 15 19 8 10 1014.2 1012.8 1.0
25/08:30pm 11.3 8.2 8.7 84 1.3 WSW 15 20 8 11 1014.0 1012.7 1.0
25/08:00pm 11.5 7.5 8.9 84 1.3 WSW 20 30 11 16 1013.4 1012.1 1.0
25/07:30pm 11.8 8.9 9.5 86 1.2 SW 15 19 8 10 1013.0 1011.7 1.0
25/07:00pm 12.2 9.7 9.6 84 1.4 SW 13 17 7 9 1012.6 1011.2 1.0
25/06:30pm 12.2 9.6 9.4 83 1.5 SW 13 19 7 10 1011.9 1010.6 1.0
25/06:00pm 12.4 9.0 9.2 81 1.7 WSW 17 26 9 14 1011.4 1010.0 1.0
25/05:30pm 12.9 9.2 9.4 79 1.8 WSW 19 28 10 15 1011.4 1010.0 1.0
25/05:00pm 14.1 10.9 10.1 77 2.2 SW 17 24 9 13 1011.0 1009.6 1.0
25/04:30pm 14.3 11.0 9.7 74 2.5 SSW 17 28 9 15 1010.6 1009.3 1.0
25/04:00pm 14.5 9.7 8.9 69 2.9 SW 24 35 13 19 1010.4 1009.1 1.0
25/03:30pm 15.5 11.4 10.1 70 2.9 SW 22 32 12 17 1010.1 1008.7 1.0
25/03:00pm 14.7 10.1 9.7 72 2.7 SW 24 39 13 21 1009.9 1008.5 1.0
25/02:30pm 14.6 10.7 9.6 72 2.7 WSW 20 28 11 15 1009.7 1008.3 1.0
25/02:00pm 14.1 10.4 11.6 85 1.4 WSW 22 30 12 16 1009.9 1008.5 1.0
25/01:30pm 12.1 7.7 10.3 89 1.0 SW 24 35 13 19 1009.8 1008.4 0.8
25/01:00pm 13.9 11.4 10.9 82 1.6 SSW 15 20 8 11 1009.5 1008.1 0.6
25/12:30pm 12.9 9.4 10.8 87 1.1 WSW 20 30 11 16 1009.5 1008.1 0.6
25/12:00pm 13.4 10.5 11.1 86 1.3 SSW 17 24 9 13 1009.4 1008.0 0.6
25/11:30am 13.0 11.1 11.7 92 0.7 SSW 13 19 7 10 1009.6 1008.2 0.6
25/11:00am 13.4 11.3 9.8 79 1.9 SSW 11 19 6 10 1009.4 1008.0 0.6
25/10:30am 12.8 11.2 10.2 84 1.4 SSW 9 15 5 8 1009.5 1008.1 0.6
25/10:00am 12.2 9.7 11.1 93 0.6 S 15 19 8 10 1009.6 1008.2 0.6
25/09:30am 11.9 10.5 11.0 94 0.5 W 9 17 5 9 1009.1 1007.8 0.6
25/09:00am 10.9 7.8 10.4 97 0.3 NNW 17 26 9 14 1008.9 1007.6 9.2
25/08:30am 10.7 7.5 9.9 95 0.4 NW 17 22 9 12 1009.4 1008.0 8.6
25/08:00am 10.5 6.9 10.0 97 0.3 NNW 19 26 10 14 1009.3 1007.9 6.0
25/07:30am 10.5 6.9 9.9 96 0.3 N 19 28 10 15 1009.0 1007.7 3.8
25/07:00am 10.5 10.1 9.7 95 0.4 NW 2 7 1 4 1009.0 1007.7 3.2
25/06:30am 10.5 8.4 9.9 96 0.3 NW 11 15 6 8 1008.9 1007.6 2.2
25/06:00am 10.6 8.9 9.8 95 0.4 N 9 13 5 7 1008.4 1007.0 1.8
25/05:30am 10.6 8.9 9.8 95 0.4 N 9 15 5 8 1008.2 1006.8 1.4
25/05:00am 10.7 8.2 9.8 94 0.5 N 13 19 7 10 1008.0 1006.6 1.4
25/04:30am 10.9 7.3 9.7 92 0.6 NNW 19 24 10 13 1007.9 1006.5 1.4
25/04:00am 11.2 7.9 9.5 89 0.9 NNW 17 22 9 12 1007.8 1006.4 1.4
25/03:30am 11.3 7.6 9.6 89 0.9 NNW 19 24 10 13 1008.1 1006.7 1.4
25/03:00am 11.3 8.8 9.6 89 0.9 NNW 13 17 7 9 1008.5 1007.1 1.4
25/02:30am 11.5 9.0 9.6 88 1.0 NNW 13 17 7 9 1008.8 1007.4 1.4
25/02:00am 11.7 8.7 9.4 86 1.2 NNW 15 20 8 11 1009.4 1008.0 1.4
25/01:30am 11.8 9.2 9.5 86 1.2 NNW 13 19 7 10 1009.1 1007.8 1.0
25/01:00am 12.4 9.1 9.4 82 1.6 NW 17 22 9 12 1010.0 1008.6 0.4
25/12:30am 12.8 9.0 9.1 78 1.9 NNW 19 24 10 13 1009.4 1008.0 0.0
25/12:00am 13.3 10.2 9.0 75 2.3 NW 15 22 8 12 1009.8 1008.4 0.0
 
Date/Time
EST
Temp
°C
App
Temp
°C
Dew
Point
°C
Rel
Hum
%
Delta-T
°C
Wind Press
QNH
hPa
Press
MSL
hPa
Rain since
9am
mm
Dir  Spd
km/h
Gust
km/h
Spd
kts
Gust
kts
24/11:30pm 13.0 11.0 8.5 74 2.3 NW 9 15 5 8 1010.5 1009.2 0.0
24/11:00pm 13.2 10.3 8.3 72 2.5 NW 13 15 7 8 1010.3 1009.0 0.0
24/10:30pm 12.8 10.7 8.3 74 2.3 NNW 9 13 5 7 1011.0 1009.6 0.0
24/10:00pm 12.8 10.7 8.3 74 2.3 NNW 9 13 5 7 1011.0 1009.6 0.0
24/09:30pm 13.2 11.1 8.3 72 2.5 NNW 9 15 5 8 1010.7 1009.4 0.0
24/09:00pm 13.4 10.9 8.3 71 2.6 NW 11 15 6 8 1011.4 1010.0 0.0
24/08:30pm 13.2 11.1 8.3 72 2.5 NW 9 15 5 8 1011.3 1009.9 0.0
24/08:00pm 13.1 10.6 8.4 73 2.4 NW 11 13 6 7 1011.4 1010.0 0.0
24/07:30pm 13.2 10.4 8.5 73 2.4 WNW 13 15 7 8 1011.2 1009.8 0.0
24/07:00pm 14.0 12.0 8.8 71 2.7 WNW 9 11 5 6 1010.9 1009.5 0.0
24/06:30pm 14.4 12.1 9.0 70 2.8 WNW 11 13 6 7 1010.7 1009.4 0.0
24/06:00pm 14.9 12.5 8.8 67 3.2 NW 11 15 6 8 1010.3 1009.0 0.0
24/05:30pm 16.1 13.2 8.1 59 4.2 NW 13 15 7 8 1010.1 1008.7 0.0
24/05:00pm 16.6 13.1 7.0 53 4.9 NW 15 17 8 9 1010.2 1008.8 0.0

Other Formats:

Comma delimited format used in spreadsheet applications
http://www.bom.gov.au/fwo/IDN60801/IDN60801.95728.axf

JavaScript Object Notation format (JSON) in row-major order
http://www.bom.gov.au/fwo/IDN60801/IDN60801.95728.json